Tubize, Belgium
Current Conditions -  °F | °C
As of 10:25 AM on Tuesday 27 Jan 2015 (Local Time) from EBCV Reporting Station
Broken Clouds Broken Clouds  
Wind Chill: 33°   Ceiling: 13000
Heat Index: 37°   Visibility: 5mi
Dew Point: 36°   Wind: 6mph
Humidity: 93%   Direction: 250°WSW
Pressure: 30.39"   Gusts: NA
Location:  50.69°N, 4.2°E
Report Text: EBCV 270925Z AUTO 25005KT 8000 FEW120/// BKN130/// 03/02 Q1029 BLU
Loading
Personal Weather Stations






























Interactive Weather Map New forecast layout! Learn more

10-Day Weather Forecast

Advertisements
Track Severe Weather on mobile